createdAt,value
2023-01-07T00:01:40.357Z,10.45
2023-01-07T00:05:22.118Z,10.18
2023-01-07T00:09:06.404Z,8.55
2023-01-07T00:12:48.131Z,10.20
2023-01-07T00:16:31.532Z,8.52
2023-01-07T00:20:13.292Z,11.73
2023-01-07T00:23:57.266Z,8.55
2023-01-07T00:27:38.999Z,7.78
2023-01-07T00:31:26.332Z,12.93
2023-01-07T00:35:21.737Z,7.68
2023-01-07T00:39:05.580Z,5.85
2023-01-07T00:43:04.830Z,8.02
2023-01-07T00:46:46.622Z,10.60
2023-01-07T00:50:33.394Z,8.40
2023-01-07T00:54:15.097Z,5.60
2023-01-07T00:57:57.551Z,14.65
2023-01-07T01:01:39.416Z,9.50
2023-01-07T01:05:22.131Z,8.82
2023-01-07T01:09:03.977Z,7.65
2023-01-07T01:12:46.252Z,10.75
2023-01-07T01:16:28.099Z,6.75
2023-01-07T01:20:13.829Z,7.55
2023-01-07T01:23:55.515Z,9.70
2023-01-07T01:27:37.368Z,9.90
2023-01-07T01:31:19.152Z,7.93
2023-01-07T01:35:00.993Z,9.30
2023-01-07T01:38:43.007Z,8.25
2023-01-07T01:42:25.726Z,7.05
2023-01-07T01:46:18.409Z,9.73
2023-01-07T01:50:13.167Z,7.38
2023-01-07T01:53:55.807Z,8.07
2023-01-07T01:57:40.004Z,4.65
2023-01-07T02:01:22.040Z,5.28
2023-01-07T02:05:04.494Z,5.90
2023-01-07T02:08:46.234Z,8.57
2023-01-07T02:12:58.790Z,9.60
2023-01-07T02:16:49.404Z,7.32
2023-01-07T02:20:40.500Z,8.85
2023-01-07T02:24:40.176Z,9.38
2023-01-07T02:28:40.692Z,6.88
2023-01-07T02:32:25.184Z,10.52
2023-01-07T02:36:16.968Z,7.95
2023-01-07T02:40:15.951Z,9.65
2023-01-07T02:44:05.180Z,11.27
2023-01-07T02:48:12.076Z,14.73
2023-01-07T02:51:53.862Z,11.32
2023-01-07T02:55:56.929Z,8.73
2023-01-07T03:00:00.483Z,15.65
2023-01-07T03:04:08.131Z,9.38
2023-01-07T03:08:14.122Z,10.25
2023-01-07T03:12:11.657Z,9.18
2023-01-07T03:16:08.143Z,9.23
2023-01-07T03:19:55.014Z,7.57
2023-01-07T03:23:43.651Z,11.02
2023-01-07T03:27:30.479Z,8.38
2023-01-07T03:31:15.443Z,10.07
2023-01-07T03:34:57.701Z,7.53
2023-01-07T03:38:43.054Z,7.18
2023-01-07T03:42:40.508Z,7.90
2023-01-07T03:46:22.357Z,10.18
2023-01-07T03:50:04.428Z,6.88
2023-01-07T03:53:46.172Z,9.18
2023-01-07T03:57:29.171Z,8.40
2023-01-07T04:01:11.086Z,7.78
2023-01-07T04:04:53.416Z,10.05
2023-01-07T04:08:37.183Z,8.25
2023-01-07T04:12:18.944Z,9.27
2023-01-07T04:16:00.651Z,8.05
2023-01-07T04:19:42.394Z,11.10
2023-01-07T04:23:24.259Z,12.50
2023-01-07T04:27:06.031Z,13.02
2023-01-07T04:30:47.864Z,9.98
2023-01-07T04:34:29.608Z,7.35
2023-01-07T04:38:11.343Z,10.10
2023-01-07T04:41:53.055Z,8.68
2023-01-07T04:45:34.938Z,7.63
2023-01-07T04:49:16.814Z,7.68
2023-01-07T04:52:58.537Z,7.53
2023-01-07T04:56:40.292Z,11.98
2023-01-07T05:00:22.035Z,6.13
2023-01-07T05:04:04.133Z,7.28
2023-01-07T05:07:46.320Z,12.68
2023-01-07T05:11:28.051Z,11.48
2023-01-07T05:15:10.220Z,9.45
2023-01-07T05:18:51.972Z,6.32
2023-01-07T05:22:33.695Z,7.55
2023-01-07T05:26:15.512Z,6.63
2023-01-07T05:29:57.240Z,8.10
2023-01-07T05:33:38.994Z,7.45
2023-01-07T05:37:20.716Z,7.32
2023-01-07T05:41:02.524Z,9.88
2023-01-07T05:44:44.275Z,11.13
2023-01-07T05:48:26.211Z,9.27
2023-01-07T05:52:08.103Z,7.28
2023-01-07T05:55:55.135Z,14.52
2023-01-07T05:59:36.972Z,7.45
2023-01-07T06:03:19.759Z,7.00
2023-01-07T06:07:01.705Z,10.05
2023-01-07T06:10:44.447Z,7.78
2023-01-07T06:14:26.181Z,9.60
2023-01-07T06:18:07.943Z,6.28
2023-01-07T06:21:49.951Z,12.65
2023-01-07T06:25:31.647Z,15.25
2023-01-07T06:29:13.563Z,6.95
2023-01-07T06:32:55.355Z,9.95
2023-01-07T06:36:37.090Z,9.13
2023-01-07T06:40:19.124Z,10.35
2023-01-07T06:44:00.865Z,11.23
2023-01-07T06:47:42.714Z,9.45
2023-01-07T06:51:24.479Z,10.23
2023-01-07T06:55:06.817Z,8.48
2023-01-07T06:58:48.552Z,12.07
2023-01-07T07:02:30.441Z,6.45
2023-01-07T07:06:12.385Z,12.65
2023-01-07T07:09:54.168Z,11.43
2023-01-07T07:13:36.184Z,8.48
2023-01-07T07:17:17.922Z,10.23
2023-01-07T07:20:59.932Z,5.82
2023-01-07T07:24:41.672Z,7.05
2023-01-07T07:28:23.433Z,7.53
2023-01-07T07:32:05.533Z,5.10
2023-01-07T07:35:47.660Z,11.27
2023-01-07T07:39:29.349Z,8.18
2023-01-07T07:43:12.987Z,9.65
2023-01-07T07:46:55.087Z,10.10
2023-01-07T07:50:37.305Z,7.30
2023-01-07T07:54:19.139Z,6.07
2023-01-07T07:58:00.835Z,10.40
2023-01-07T08:01:42.813Z,10.40
2023-01-07T08:05:24.851Z,9.35
2023-01-07T08:09:06.650Z,9.90
2023-01-07T08:12:50.495Z,8.45
2023-01-07T08:16:32.434Z,10.20
2023-01-07T08:20:14.182Z,10.77
2023-01-07T08:23:55.982Z,7.18
2023-01-07T08:27:37.731Z,12.32
2023-01-07T08:31:19.533Z,15.40
2023-01-07T08:35:01.281Z,11.40
2023-01-07T08:38:44.234Z,9.88
2023-01-07T08:42:26.767Z,9.45
2023-01-07T08:46:08.516Z,9.25
2023-01-07T08:49:51.617Z,8.52
2023-01-07T08:53:33.915Z,8.93
2023-01-07T08:57:16.937Z,15.93
2023-01-07T09:01:03.438Z,7.80
2023-01-07T09:04:45.596Z,10.57
2023-01-07T09:08:27.449Z,8.15
2023-01-07T09:12:10.932Z,8.68
2023-01-07T09:15:53.249Z,6.28
2023-01-07T09:19:35.044Z,8.25
2023-01-07T09:23:17.353Z,11.70
2023-01-07T09:26:59.063Z,8.73
2023-01-07T09:30:40.882Z,10.65
2023-01-07T09:34:22.647Z,8.05
2023-01-07T09:38:04.439Z,7.88
2023-01-07T09:42:05.578Z,11.52
2023-01-07T09:45:52.417Z,10.75
2023-01-07T09:49:34.323Z,9.52
2023-01-07T09:53:44.276Z,8.05
2023-01-07T09:57:27.730Z,9.07
2023-01-07T10:01:26.166Z,8.98
2023-01-07T10:05:26.575Z,11.85
2023-01-07T10:09:51.002Z,9.00
2023-01-07T10:14:02.939Z,10.27
2023-01-07T10:17:47.662Z,10.90
2023-01-07T10:21:53.682Z,14.23
2023-01-07T10:25:44.045Z,8.20
2023-01-07T10:29:25.719Z,10.70
2023-01-07T10:33:26.600Z,6.75
2023-01-07T10:37:27.134Z,7.80
2023-01-07T10:41:22.645Z,9.68
2023-01-07T10:45:04.510Z,7.88
2023-01-07T10:48:59.845Z,8.90
2023-01-07T10:52:58.582Z,12.20
2023-01-07T10:56:48.806Z,10.00
2023-01-07T11:00:30.887Z,14.65
2023-01-07T11:04:15.801Z,10.10
2023-01-07T11:08:01.547Z,7.50
2023-01-07T11:11:45.889Z,9.50
2023-01-07T11:19:14.784Z,9.70
2023-01-07T11:22:56.521Z,6.45
2023-01-07T11:26:38.311Z,5.93
2023-01-07T11:30:29.009Z,4.65
2023-01-07T11:34:28.027Z,4.90
2023-01-07T11:38:48.366Z,7.90
2023-01-07T11:42:39.492Z,7.10
2023-01-07T11:46:25.883Z,3.58
2023-01-07T11:50:34.423Z,3.15
2023-01-07T11:54:28.177Z,5.00
2023-01-07T11:58:30.036Z,3.85
2023-01-07T12:02:28.025Z,6.50
2023-01-07T12:06:25.111Z,4.32
2023-01-07T12:10:44.349Z,8.02
2023-01-07T12:14:32.796Z,7.63
2023-01-07T12:18:37.842Z,6.10
2023-01-07T12:23:05.211Z,3.13
2023-01-07T12:27:22.291Z,4.32
2023-01-07T12:31:22.714Z,10.00
2023-01-07T12:35:33.174Z,6.75
2023-01-07T12:39:25.367Z,5.82
2023-01-07T12:43:39.172Z,5.50
2023-01-07T12:51:33.938Z,7.47
2023-01-07T12:55:39.793Z,6.68
2023-01-07T12:59:46.518Z,6.55
2023-01-07T13:04:01.301Z,7.30
2023-01-07T13:07:47.664Z,5.57
2023-01-07T13:12:02.141Z,10.35
2023-01-07T13:15:43.927Z,10.98
2023-01-07T13:19:25.691Z,7.40
2023-01-07T13:23:16.745Z,13.30
2023-01-07T13:27:16.583Z,6.57
2023-01-07T13:31:12.391Z,7.75
2023-01-07T13:35:15.853Z,9.45
2023-01-07T13:39:13.757Z,10.23
2023-01-07T13:43:18.079Z,9.45
2023-01-07T13:47:03.650Z,8.65
2023-01-07T13:50:57.009Z,9.55
2023-01-07T13:54:50.665Z,14.13
2023-01-07T13:58:32.349Z,12.93
2023-01-07T14:02:42.252Z,15.95
2023-01-07T14:06:27.017Z,11.90
2023-01-07T14:10:26.740Z,11.30
2023-01-07T14:14:46.497Z,8.82
2023-01-07T14:18:39.963Z,12.27
2023-01-07T14:26:32.907Z,12.25
2023-01-07T14:30:28.384Z,11.43
2023-01-07T14:34:18.809Z,10.40
2023-01-07T14:38:00.719Z,10.52
2023-01-07T14:42:21.004Z,13.23
2023-01-07T14:46:03.066Z,10.00
2023-01-07T14:50:04.551Z,12.60
2023-01-07T14:54:07.783Z,13.50
2023-01-07T14:58:11.250Z,10.43
2023-01-07T15:02:24.061Z,10.02
2023-01-07T15:06:11.577Z,6.53
2023-01-07T15:10:20.960Z,5.82
2023-01-07T15:14:32.558Z,6.13
2023-01-07T15:18:15.959Z,6.28
2023-01-07T15:26:28.685Z,5.95
2023-01-07T15:30:30.849Z,7.35
2023-01-07T15:34:17.797Z,10.20
2023-01-07T15:38:02.743Z,10.07
2023-01-07T15:41:44.572Z,7.43
2023-01-07T15:45:28.543Z,11.38
2023-01-07T15:49:10.229Z,7.47
2023-01-07T15:52:53.732Z,10.75
2023-01-07T15:56:36.570Z,14.85
2023-01-07T16:00:20.144Z,16.58
2023-01-07T16:04:03.632Z,9.05
2023-01-07T16:07:48.085Z,11.38
2023-01-07T16:11:31.346Z,10.90
2023-01-07T16:15:27.172Z,8.40
2023-01-07T16:19:20.451Z,7.93
2023-01-07T16:23:08.428Z,9.90
2023-01-07T16:26:55.047Z,7.13
2023-01-07T16:30:40.832Z,8.02
2023-01-07T16:34:25.523Z,12.50
2023-01-07T16:38:08.966Z,10.57
2023-01-07T16:45:35.004Z,10.52
2023-01-07T16:49:28.340Z,5.90
2023-01-07T16:53:30.315Z,6.45
2023-01-07T16:57:11.994Z,7.28
2023-01-07T17:00:56.000Z,5.25
2023-01-07T17:04:38.193Z,7.40
2023-01-07T17:08:20.338Z,9.85
2023-01-07T17:12:02.620Z,12.75
2023-01-07T17:15:48.586Z,12.80
2023-01-07T17:19:42.348Z,10.20
2023-01-07T17:23:27.410Z,8.25
2023-01-07T17:27:18.388Z,5.30
2023-01-07T17:31:01.138Z,6.38
2023-01-07T17:34:42.866Z,6.68
2023-01-07T17:38:24.739Z,7.07
2023-01-07T17:42:38.508Z,6.50
2023-01-07T17:46:20.255Z,8.20
2023-01-07T17:50:02.063Z,6.22
2023-01-07T17:53:49.625Z,11.73
2023-01-07T17:57:31.398Z,8.02
2023-01-07T18:01:20.150Z,8.23
2023-01-07T18:05:01.995Z,9.57
2023-01-07T18:08:46.079Z,7.75
2023-01-07T18:12:30.548Z,9.20
2023-01-07T18:16:14.390Z,11.10
2023-01-07T18:19:57.517Z,7.05
2023-01-07T18:23:39.287Z,10.40
2023-01-07T18:27:20.984Z,8.13
2023-01-07T18:31:02.721Z,11.18
2023-01-07T18:34:44.520Z,10.70
2023-01-07T18:38:26.353Z,11.95
2023-01-07T18:42:08.095Z,10.80
2023-01-07T18:45:50.013Z,12.93
2023-01-07T18:49:31.772Z,7.50
2023-01-07T18:53:14.247Z,8.60
2023-01-07T18:56:56.011Z,10.30
2023-01-07T19:00:37.828Z,11.25
2023-01-07T19:04:19.604Z,14.02
2023-01-07T19:08:01.345Z,14.15
2023-01-07T19:11:43.091Z,15.65
2023-01-07T19:15:24.798Z,15.43
2023-01-07T19:19:06.592Z,15.15
2023-01-07T19:22:48.310Z,15.15
2023-01-07T19:26:30.974Z,17.88
2023-01-07T19:30:12.982Z,21.70
2023-01-07T19:33:54.703Z,29.10
2023-01-07T19:37:39.591Z,15.13
2023-01-07T19:41:23.882Z,15.13
2023-01-07T19:45:06.866Z,14.23
2023-01-07T19:48:48.668Z,13.73
2023-01-07T19:52:30.408Z,12.38
2023-01-07T19:56:12.786Z,18.50
2023-01-07T19:59:54.551Z,29.00
2023-01-07T20:03:37.083Z,19.95
2023-01-07T20:07:18.794Z,24.10
2023-01-07T20:11:04.575Z,23.17
2023-01-07T20:14:46.376Z,19.92
2023-01-07T20:18:28.101Z,17.80
2023-01-07T20:22:10.920Z,20.13
2023-01-07T20:25:52.658Z,27.55
2023-01-07T20:29:35.892Z,16.83
2023-01-07T20:33:18.073Z,18.40
2023-01-07T20:36:59.845Z,18.73
2023-01-07T20:40:42.786Z,21.75
2023-01-07T20:44:24.507Z,18.02
2023-01-07T20:48:06.267Z,24.42
2023-01-07T20:51:47.970Z,21.83
2023-01-07T20:55:30.106Z,20.00
2023-01-07T20:59:14.133Z,19.92
2023-01-07T21:02:55.917Z,22.83
2023-01-07T21:06:37.630Z,29.52
2023-01-07T21:10:19.798Z,23.65
2023-01-07T21:14:01.719Z,20.17
2023-01-07T21:17:43.572Z,19.20
2023-01-07T21:21:25.776Z,32.70
2023-01-07T21:25:11.087Z,21.60
2023-01-07T21:28:55.829Z,21.60
2023-01-07T21:32:37.800Z,25.60
2023-01-07T21:36:20.973Z,18.42
2023-01-07T21:40:04.379Z,15.68
2023-01-07T21:47:27.849Z,19.35
2023-01-07T21:51:16.261Z,22.85
2023-01-07T21:54:57.979Z,15.73
2023-01-07T21:58:39.823Z,17.48
2023-01-07T22:02:24.262Z,15.13
2023-01-07T22:06:08.498Z,26.35
2023-01-07T22:09:50.340Z,16.92
2023-01-07T22:13:32.021Z,24.02
2023-01-07T22:17:15.048Z,26.50
2023-01-07T22:20:56.805Z,14.05
2023-01-07T22:24:38.571Z,19.52
2023-01-07T22:28:23.341Z,23.65
2023-01-07T22:32:05.388Z,18.40
2023-01-07T22:35:48.094Z,21.13
2023-01-07T22:39:38.706Z,25.33
2023-01-07T22:43:21.484Z,21.92
2023-01-07T22:47:07.335Z,16.73
2023-01-07T22:50:49.676Z,14.35
2023-01-07T22:54:32.019Z,20.42
2023-01-07T22:58:14.288Z,15.88
2023-01-07T23:01:56.061Z,29.77
2023-01-07T23:05:39.730Z,14.35
2023-01-07T23:09:21.494Z,18.42
2023-01-07T23:13:04.007Z,18.05
2023-01-07T23:16:46.030Z,21.47
2023-01-07T23:20:27.803Z,13.75
2023-01-07T23:24:10.626Z,18.83
2023-01-07T23:27:52.500Z,17.67
2023-01-07T23:31:35.456Z,18.23
2023-01-07T23:35:17.308Z,18.35
2023-01-07T23:38:59.100Z,22.13
2023-01-07T23:42:41.261Z,16.70
2023-01-07T23:46:23.007Z,18.63
2023-01-07T23:50:05.170Z,15.50
2023-01-07T23:53:47.203Z,24.88
2023-01-07T23:57:28.936Z,19.52
